createdAt,value
2018-10-18T00:00:12.288Z,18.07
2018-10-18T00:05:08.614Z,18.03
2018-10-18T00:10:03.045Z,18.73
2018-10-18T00:14:57.494Z,18.60
2018-10-18T00:19:51.933Z,17.00
2018-10-18T00:24:46.377Z,17.40
2018-10-18T00:29:40.766Z,18.70
2018-10-18T00:34:35.204Z,17.50
2018-10-18T00:39:29.629Z,16.40
2018-10-18T00:44:24.053Z,18.20
2018-10-18T00:49:18.475Z,17.50
2018-10-18T00:54:12.949Z,17.17
2018-10-18T00:59:07.312Z,17.27
2018-10-18T01:04:01.741Z,17.30
2018-10-18T01:08:56.173Z,16.10
2018-10-18T01:13:50.584Z,16.23
2018-10-18T01:18:45.064Z,15.17
2018-10-18T01:23:39.522Z,16.30
2018-10-18T01:28:33.916Z,16.73
2018-10-18T01:33:28.405Z,17.47
2018-10-18T01:38:22.877Z,17.73
2018-10-18T01:43:17.304Z,17.10
2018-10-18T01:48:11.852Z,16.57
2018-10-18T01:53:06.876Z,17.53
2018-10-18T01:58:01.838Z,17.53
2018-10-18T02:02:56.324Z,17.87
2018-10-18T02:07:50.795Z,16.50
2018-10-18T02:12:45.296Z,17.30
2018-10-18T02:17:39.964Z,15.73
2018-10-18T02:22:34.420Z,16.80
2018-10-18T02:27:28.828Z,17.30
2018-10-18T02:32:23.324Z,16.67
2018-10-18T02:37:17.754Z,17.93
2018-10-18T02:42:12.270Z,17.53
2018-10-18T02:47:06.701Z,19.63
2018-10-18T02:52:01.140Z,18.83
2018-10-18T02:56:55.587Z,18.40
2018-10-18T03:01:50.065Z,17.63
2018-10-18T03:06:44.472Z,18.73
2018-10-18T03:11:38.913Z,18.43
2018-10-18T03:16:33.352Z,18.23
2018-10-18T03:21:27.780Z,18.60
2018-10-18T03:26:22.269Z,19.63
2018-10-18T03:31:16.672Z,21.07
2018-10-18T03:36:11.101Z,20.27
2018-10-18T03:41:05.660Z,20.50
2018-10-18T03:46:00.090Z,19.90
2018-10-18T03:50:54.504Z,20.70
2018-10-18T03:55:49.066Z,19.50
2018-10-18T04:00:43.472Z,20.20
2018-10-18T04:05:37.934Z,21.70
2018-10-18T04:10:32.426Z,21.83
2018-10-18T04:15:26.942Z,21.17
2018-10-18T04:20:21.412Z,20.57
2018-10-18T04:25:15.918Z,21.87
2018-10-18T04:30:10.442Z,21.23
2018-10-18T04:35:05.572Z,23.43
2018-10-18T04:39:59.964Z,23.57
2018-10-18T04:44:54.388Z,23.57
2018-10-18T04:49:48.800Z,23.90
2018-10-18T04:54:43.249Z,26.43
2018-10-18T04:59:37.705Z,26.60
2018-10-18T05:04:32.170Z,26.37
2018-10-18T05:09:26.629Z,23.97
2018-10-18T05:14:21.050Z,23.90
2018-10-18T05:19:15.580Z,24.73
2018-10-18T05:24:09.971Z,30.80
2018-10-18T05:29:04.477Z,25.00
2018-10-18T05:33:58.893Z,24.87
2018-10-18T05:38:53.381Z,22.33
2018-10-18T05:43:47.772Z,23.50
2018-10-18T05:48:42.344Z,25.37
2018-10-18T05:53:36.905Z,27.20
2018-10-18T05:58:31.341Z,29.30
2018-10-18T06:03:25.976Z,25.97
2018-10-18T06:08:23.448Z,27.30
2018-10-18T06:13:18.604Z,29.20
2018-10-18T06:18:14.096Z,27.40
2018-10-18T06:23:08.954Z,27.40
2018-10-18T06:28:05.716Z,26.80
2018-10-18T06:33:11.882Z,27.57
2018-10-18T06:38:07.071Z,26.67
2018-10-18T06:43:02.632Z,26.93
2018-10-18T06:48:01.651Z,26.63
2018-10-18T06:52:57.293Z,25.43
2018-10-18T06:57:53.110Z,25.77
2018-10-18T07:03:03.681Z,28.27
2018-10-18T07:07:59.601Z,25.20
2018-10-18T07:12:55.027Z,26.37
2018-10-18T07:17:55.180Z,25.03
2018-10-18T07:22:50.805Z,26.13
2018-10-18T07:27:47.304Z,26.20
2018-10-18T07:32:42.927Z,25.60
2018-10-18T07:37:38.317Z,27.57
2018-10-18T07:42:33.805Z,29.00
2018-10-18T07:47:29.751Z,35.93
2018-10-18T07:52:24.826Z,36.97
2018-10-18T07:57:19.773Z,33.47
2018-10-18T08:02:14.458Z,33.10
2018-10-18T08:07:10.102Z,32.43
2018-10-18T08:12:05.286Z,33.87
2018-10-18T08:17:00.881Z,35.03
2018-10-18T08:21:55.543Z,34.60
2018-10-18T08:26:50.305Z,36.23
2018-10-18T08:31:44.992Z,36.63
2018-10-18T08:36:39.727Z,35.27
2018-10-18T08:41:34.455Z,38.67
2018-10-18T08:46:29.385Z,38.43
2018-10-18T08:51:25.095Z,41.00
2018-10-18T08:56:21.501Z,38.67
2018-10-18T09:01:16.890Z,40.20
2018-10-18T09:06:11.600Z,39.70
2018-10-18T09:11:06.727Z,40.87
2018-10-18T09:16:01.377Z,39.90
2018-10-18T09:20:56.157Z,39.37
2018-10-18T09:25:50.865Z,39.00
2018-10-18T09:30:45.624Z,38.23
2018-10-18T09:35:40.297Z,39.77
2018-10-18T09:40:34.977Z,40.20
2018-10-18T09:45:29.987Z,38.90
2018-10-18T09:50:24.817Z,37.57
2018-10-18T09:55:19.731Z,36.80
2018-10-18T10:00:20.093Z,39.03
2018-10-18T10:05:14.696Z,37.53
2018-10-18T10:10:09.624Z,38.83
2018-10-18T10:15:04.350Z,39.97
2018-10-18T10:19:59.008Z,37.57
2018-10-18T10:24:54.135Z,39.37
2018-10-18T10:29:48.840Z,39.83
2018-10-18T10:34:43.589Z,38.97
2018-10-18T10:39:38.507Z,36.17
2018-10-18T10:44:33.226Z,35.73
2018-10-18T10:49:27.940Z,36.53
2018-10-18T10:54:23.304Z,33.40
2018-10-18T10:59:19.165Z,38.60
2018-10-18T11:04:13.782Z,33.87
2018-10-18T11:09:10.512Z,36.93
2018-10-18T11:14:05.940Z,30.63
2018-10-18T11:19:00.808Z,27.20
2018-10-18T11:23:55.454Z,27.60
2018-10-18T11:28:50.045Z,29.73
2018-10-18T11:33:44.746Z,29.23
2018-10-18T11:38:39.605Z,30.13
2018-10-18T11:43:34.444Z,30.33
2018-10-18T11:48:46.480Z,30.10
2018-10-18T11:54:01.599Z,29.33
2018-10-18T11:59:17.079Z,28.83
2018-10-18T12:04:37.200Z,30.07
2018-10-18T12:09:53.958Z,26.57
2018-10-18T12:15:06.022Z,25.20
2018-10-18T12:20:25.418Z,23.47
2018-10-18T12:25:20.088Z,24.00
2018-10-18T12:30:15.436Z,19.83
2018-10-18T12:35:10.565Z,17.57
2018-10-18T12:40:07.718Z,16.87
2018-10-18T12:45:02.465Z,16.60
2018-10-18T12:49:57.038Z,16.40
2018-10-18T12:54:52.159Z,16.30
2018-10-18T12:59:46.876Z,15.67
2018-10-18T13:04:41.896Z,17.10
2018-10-18T13:09:36.533Z,15.70
2018-10-18T13:14:31.817Z,16.53
2018-10-18T13:19:27.048Z,17.63
2018-10-18T13:24:22.369Z,16.20
2018-10-18T13:29:17.025Z,15.67
2018-10-18T13:34:11.972Z,15.70
2018-10-18T13:39:12.920Z,15.27
2018-10-18T13:44:07.976Z,15.37
2018-10-18T13:49:02.695Z,15.00
2018-10-18T13:54:00.998Z,14.47
2018-10-18T13:58:56.042Z,13.90
2018-10-18T14:03:51.214Z,14.30
2018-10-18T14:08:51.014Z,14.90
2018-10-18T14:13:56.774Z,12.93
2018-10-18T14:19:12.795Z,13.27
2018-10-18T14:24:07.792Z,12.80
2018-10-18T14:29:02.630Z,12.47
2018-10-18T14:33:57.184Z,13.10
2018-10-18T14:38:51.877Z,13.07
2018-10-18T14:43:46.628Z,11.83
2018-10-18T14:48:41.355Z,11.47
2018-10-18T14:53:36.128Z,11.83
2018-10-18T14:58:31.401Z,11.10
2018-10-18T15:03:25.943Z,12.57
2018-10-18T15:08:20.632Z,13.60
2018-10-18T15:13:15.281Z,12.17
2018-10-18T15:18:10.557Z,13.33
2018-10-18T15:23:05.302Z,13.67
2018-10-18T15:28:00.739Z,14.00
2018-10-18T15:32:55.534Z,13.93
2018-10-18T15:37:50.365Z,14.37
2018-10-18T15:42:45.028Z,15.13
2018-10-18T15:47:39.796Z,14.13
2018-10-18T15:52:34.422Z,14.90
2018-10-18T15:57:29.045Z,15.87
2018-10-18T16:02:23.914Z,14.67
2018-10-18T16:07:18.961Z,15.37
2018-10-18T16:12:13.972Z,14.90
2018-10-18T16:17:08.644Z,16.07
2018-10-18T16:22:03.497Z,17.20
2018-10-18T16:26:58.124Z,17.37
2018-10-18T16:31:52.751Z,17.53
2018-10-18T16:36:47.364Z,17.23
2018-10-18T16:41:42.389Z,17.87
2018-10-18T16:46:37.068Z,17.60
2018-10-18T16:51:31.681Z,18.20
2018-10-18T16:56:26.341Z,20.27
2018-10-18T17:01:21.527Z,18.87
2018-10-18T17:06:16.324Z,18.20
2018-10-18T17:11:10.913Z,17.70
2018-10-18T17:16:05.745Z,18.13
2018-10-18T17:21:00.991Z,17.87
2018-10-18T17:25:55.638Z,17.23
2018-10-18T17:30:50.195Z,16.57
2018-10-18T17:35:44.774Z,16.43
2018-10-18T17:40:39.634Z,16.17
2018-10-18T17:45:34.208Z,17.03
2018-10-18T17:50:28.945Z,16.97
2018-10-18T17:55:23.674Z,18.10
2018-10-18T18:00:18.513Z,16.97
2018-10-18T18:05:13.604Z,16.80
2018-10-18T18:10:12.747Z,16.87
2018-10-18T18:15:07.819Z,18.53
2018-10-18T18:20:02.491Z,19.70
2018-10-18T18:24:57.093Z,20.30
2018-10-18T18:29:51.568Z,21.17
2018-10-18T18:34:46.098Z,21.20
2018-10-18T18:39:40.529Z,21.43
2018-10-18T18:44:35.001Z,22.50
2018-10-18T18:49:29.550Z,22.27
2018-10-18T18:54:24.185Z,23.43
2018-10-18T18:59:18.653Z,22.13
2018-10-18T19:04:13.084Z,22.73
2018-10-18T19:09:09.052Z,23.03
2018-10-18T19:14:04.104Z,24.13
2018-10-18T19:18:58.020Z,24.30
2018-10-18T19:23:52.495Z,25.63
2018-10-18T19:28:47.051Z,26.70
2018-10-18T19:33:41.488Z,26.10
2018-10-18T19:38:36.199Z,25.37
2018-10-18T19:43:30.663Z,26.70
2018-10-18T19:48:25.174Z,26.77
2018-10-18T19:53:19.637Z,26.60
2018-10-18T19:58:14.177Z,26.17
2018-10-18T20:03:08.591Z,25.03
2018-10-18T20:08:03.145Z,25.67
2018-10-18T20:12:57.684Z,27.20
2018-10-18T20:17:52.115Z,26.70
2018-10-18T20:22:46.590Z,27.93
2018-10-18T20:27:41.056Z,28.07
2018-10-18T20:32:35.513Z,28.47
2018-10-18T20:37:29.964Z,27.83
2018-10-18T20:42:24.453Z,28.27
2018-10-18T20:47:19.132Z,28.97
2018-10-18T20:52:13.475Z,29.23
2018-10-18T20:57:07.957Z,29.37
2018-10-18T21:02:02.427Z,29.27
2018-10-18T21:06:56.861Z,29.63
2018-10-18T21:11:51.327Z,29.93
2018-10-18T21:16:45.798Z,29.77
2018-10-18T21:21:40.695Z,30.07
2018-10-18T21:26:35.209Z,30.73
2018-10-18T21:31:29.622Z,30.97
2018-10-18T21:36:24.109Z,28.67
2018-10-18T21:41:18.670Z,29.57
2018-10-18T21:46:13.108Z,28.57
2018-10-18T21:51:08.629Z,27.33
2018-10-18T21:56:03.162Z,28.30
2018-10-18T22:00:57.720Z,28.47
2018-10-18T22:05:52.263Z,26.30
2018-10-18T22:10:46.831Z,27.00
2018-10-18T22:15:41.275Z,27.10
2018-10-18T22:20:35.728Z,27.57
2018-10-18T22:25:30.164Z,27.63
2018-10-18T22:30:24.648Z,27.27
2018-10-18T22:35:19.180Z,26.20
2018-10-18T22:40:13.669Z,26.63
2018-10-18T22:45:09.051Z,25.83
2018-10-18T22:50:03.526Z,29.50
2018-10-18T22:54:57.964Z,30.30
2018-10-18T22:59:52.408Z,30.57
2018-10-18T23:04:46.860Z,32.87
2018-10-18T23:09:41.333Z,32.67
2018-10-18T23:14:35.844Z,31.07
2018-10-18T23:19:30.472Z,31.00
2018-10-18T23:24:24.900Z,31.47
2018-10-18T23:29:19.481Z,32.10
2018-10-18T23:34:13.969Z,31.30
2018-10-18T23:39:10.304Z,32.20
2018-10-18T23:44:04.712Z,31.50
2018-10-18T23:48:59.160Z,34.33
2018-10-18T23:53:53.581Z,34.93
2018-10-18T23:58:48.080Z,35.87
